Time;durP1;ratioP1;P1;durP2;ratioP2;P2;SDS_P1;SDS_P2;PMS_P1;PMS_P2;Temp;Humidity;BMP_temperature;BMP_pressure;BME280_temperature;BME280_humidity;BME280_pressure;Samples;Min_cycle;Max_cycle;Signal;HPM_P1;HPM_P2
2022/03/31 00:01:38;;;;;;;11.53;7.20;;;;;;;;;;5042032;28;20569;-59
2022/03/31 00:04:04;;;;;;;10.17;6.90;;;;;;;;;;5042492;28;20320;-60
2022/03/31 00:06:29;;;;;;;8.47;6.70;;;;;;;;;;5034869;28;20409;-59
2022/03/31 00:08:55;;;;;;;10.33;7.50;;;;;;;;;;5053635;28;20290;-59
2022/03/31 00:11:20;;;;;;;11.30;7.30;;;;;;;;;;5036556;28;20384;-60
2022/03/31 00:13:47;;;;;;;11.67;8.20;;;;;;;;;;5044957;28;20753;-59
2022/03/31 00:16:12;;;;;;;13.60;8.85;;;;;;;;;;5041097;28;20238;-59
2022/03/31 00:18:37;;;;;;;10.70;7.63;;;;;;;;;;5042632;28;20230;-59
2022/03/31 00:24:07;;;;;;;11.93;7.60;;;;;;;;;;5061927;28;20742;-60
2022/03/31 00:26:33;;;;;;;11.43;8.00;;;;;;;;;;5062219;28;20222;-59
2022/03/31 00:28:58;;;;;;;11.13;8.00;;;;;;;;;;5052882;28;20624;-60
2022/03/31 00:31:24;;;;;;;13.43;8.45;;;;;;;;;;5053911;28;20551;-59
2022/03/31 00:33:49;;;;;;;11.97;9.00;;;;;;;;;;5054858;28;20206;-59
2022/03/31 00:36:14;;;;;;;11.43;8.20;;;;;;;;;;5060383;28;20238;-59
2022/03/31 00:39:28;;;;;;;11.83;8.40;;;;;;;;;;5051438;28;20626;-59
2022/03/31 00:41:27;;;;;;;11.60;8.07;;;;;;;;;;5054919;28;20672;-60
2022/03/31 00:43:54;;;;;;;12.47;7.63;;;;;;;;;;5041130;28;20704;-59
2022/03/31 00:46:20;;;;;;;12.00;7.93;;;;;;;;;;5041940;28;20207;-59
2022/03/31 00:48:46;;;;;;;9.87;8.40;;;;;;;;;;5042773;28;20630;-60
2022/03/31 00:51:11;;;;;;;12.00;8.33;;;;;;;;;;5054086;28;20774;-60
2022/03/31 00:53:36;;;;;;;13.63;8.30;;;;;;;;;;5054206;28;20199;-59
2022/03/31 00:56:02;;;;;;;12.10;8.50;;;;;;;;;;5053685;28;20222;-59
2022/03/31 00:58:27;;;;;;;13.27;9.10;;;;;;;;;;5055049;28;20808;-59
2022/03/31 01:00:53;;;;;;;13.90;8.47;;;;;;;;;;5042131;28;20218;-59
2022/03/31 01:03:18;;;;;;;12.97;8.60;;;;;;;;;;5041754;28;20223;-59
2022/03/31 01:05:43;;;;;;;16.43;9.40;;;;;;;;;;5041919;28;20219;-59
2022/03/31 01:08:10;;;;;;;14.70;8.82;;;;;;;;;;5061091;28;20221;-59
2022/03/31 01:10:35;;;;;;;13.27;9.13;;;;;;;;;;5049306;28;20211;-59
2022/03/31 01:13:05;;;;;;;11.60;8.53;;;;;;;;;;5040788;28;20748;-60
2022/03/31 01:15:30;;;;;;;13.13;9.17;;;;;;;;;;5057088;28;20721;-59
2022/03/31 01:17:56;;;;;;;13.93;8.87;;;;;;;;;;5057028;28;20260;-59
2022/03/31 01:20:21;;;;;;;12.43;9.03;;;;;;;;;;5060894;28;20646;-59
2022/03/31 01:22:47;;;;;;;14.50;9.27;;;;;;;;;;5066005;28;20218;-59
2022/03/31 01:25:12;;;;;;;12.80;8.90;;;;;;;;;;5064363;28;20772;-60
2022/03/31 01:27:39;;;;;;;12.03;8.50;;;;;;;;;;5065656;28;20307;-59
2022/03/31 01:30:06;;;;;;;12.53;8.50;;;;;;;;;;5065001;28;20263;-60
2022/03/31 01:32:32;;;;;;;14.33;9.10;;;;;;;;;;5064624;28;20213;-59
2022/03/31 01:34:57;;;;;;;11.23;7.87;;;;;;;;;;5064320;28;20234;-59
2022/03/31 01:37:35;;;;;;;14.53;8.10;;;;;;;;;;5056789;28;20241;-59
2022/03/31 01:40:00;;;;;;;14.93;8.23;;;;;;;;;;5036442;28;20217;-59
2022/03/31 01:42:26;;;;;;;16.80;8.00;;;;;;;;;;5022924;28;20614;-59
2022/03/31 01:44:52;;;;;;;11.53;7.63;;;;;;;;;;5024672;28;20659;-59
2022/03/31 01:47:17;;;;;;;10.97;7.00;;;;;;;;;;5024599;28;20377;-59
2022/03/31 01:49:43;;;;;;;12.83;7.30;;;;;;;;;;5025732;28;20204;-59
2022/03/31 01:52:08;;;;;;;13.67;7.80;;;;;;;;;;5024941;28;20254;-59
2022/03/31 01:54:35;;;;;;;11.63;7.00;;;;;;;;;;5025001;28;20346;-59
2022/03/31 01:57:01;;;;;;;10.00;6.77;;;;;;;;;;5025442;28;20733;-59
2022/03/31 01:59:33;;;;;;;9.70;6.47;;;;;;;;;;5042886;28;20211;-59
2022/03/31 02:01:58;;;;;;;8.07;6.70;;;;;;;;;;5056354;28;20253;-59
2022/03/31 02:04:24;;;;;;;12.40;6.37;;;;;;;;;;5057344;28;20207;-59
2022/03/31 02:06:49;;;;;;;8.23;5.70;;;;;;;;;;5063549;28;20272;-59
2022/03/31 02:09:14;;;;;;;9.70;6.03;;;;;;;;;;5062819;28;20611;-59
2022/03/31 02:11:40;;;;;;;8.07;5.30;;;;;;;;;;5045352;28;20215;-59
2022/03/31 02:14:05;;;;;;;7.70;4.87;;;;;;;;;;5049676;28;20215;-60
2022/03/31 02:16:31;;;;;;;6.47;4.40;;;;;;;;;;5044881;28;20253;-59
2022/03/31 02:18:56;;;;;;;7.43;4.60;;;;;;;;;;5045272;28;20222;-59
2022/03/31 02:21:21;;;;;;;7.73;4.60;;;;;;;;;;5038888;28;20211;-59
2022/03/31 02:23:47;;;;;;;4.90;3.70;;;;;;;;;;5036612;28;20241;-59
2022/03/31 02:26:12;;;;;;;5.77;4.20;;;;;;;;;;5036385;28;20211;-59
2022/03/31 02:28:39;;;;;;;6.57;4.47;;;;;;;;;;5040504;28;20238;-59
2022/03/31 02:31:04;;;;;;;5.70;4.30;;;;;;;;;;5063729;28;20219;-59
2022/03/31 02:33:29;;;;;;;6.67;3.90;;;;;;;;;;5064313;28;20255;-59
2022/03/31 02:35:54;;;;;;;5.43;3.73;;;;;;;;;;5063904;28;20230;-59
2022/03/31 02:38:21;;;;;;;5.60;3.43;;;;;;;;;;5055887;28;20306;-59
2022/03/31 02:40:46;;;;;;;7.33;3.80;;;;;;;;;;5064066;28;20221;-59
2022/03/31 02:43:12;;;;;;;6.63;3.77;;;;;;;;;;5061074;28;20222;-59
2022/03/31 02:45:37;;;;;;;5.50;3.40;;;;;;;;;;5056225;28;21228;-59
2022/03/31 02:48:03;;;;;;;6.43;3.50;;;;;;;;;;5043218;28;20619;-59
2022/03/31 02:50:28;;;;;;;6.43;4.00;;;;;;;;;;5038938;28;20293;-59
2022/03/31 02:55:38;;;;;;;5.97;3.53;;;;;;;;;;5063596;28;20228;-59
2022/03/31 02:58:03;;;;;;;5.13;3.10;;;;;;;;;;5062541;28;20222;-60
2022/03/31 03:00:30;;;;;;;4.20;3.17;;;;;;;;;;5043941;28;20266;-59
2022/03/31 03:02:56;;;;;;;4.63;3.20;;;;;;;;;;5063772;28;20542;-59
2022/03/31 03:05:21;;;;;;;4.90;3.00;;;;;;;;;;5061949;28;20202;-59
2022/03/31 03:07:46;;;;;;;5.47;3.20;;;;;;;;;;5056071;28;20210;-59
2022/03/31 03:10:13;;;;;;;3.93;2.87;;;;;;;;;;5045504;28;20217;-59
2022/03/31 03:12:41;;;;;;;4.70;3.20;;;;;;;;;;5055844;28;20320;-59
2022/03/31 03:15:06;;;;;;;3.80;2.97;;;;;;;;;;5043168;28;20234;-59
2022/03/31 03:17:32;;;;;;;4.17;3.00;;;;;;;;;;5062386;28;20578;-60
2022/03/31 03:19:58;;;;;;;5.87;3.00;;;;;;;;;;5063525;28;20930;-59
2022/03/31 03:22:23;;;;;;;5.83;3.10;;;;;;;;;;5062903;28;20289;-59
2022/03/31 03:24:48;;;;;;;4.83;3.03;;;;;;;;;;5062657;28;20222;-59
2022/03/31 03:27:14;;;;;;;3.60;2.63;;;;;;;;;;5063221;28;20215;-59
2022/03/31 03:29:46;;;;;;;4.67;2.60;;;;;;;;;;5039251;28;20233;-59
2022/03/31 03:32:12;;;;;;;3.63;2.60;;;;;;;;;;5054160;28;20240;-59
2022/03/31 03:34:37;;;;;;;3.53;2.50;;;;;;;;;;5054710;28;20211;-59
2022/03/31 03:37:02;;;;;;;4.27;2.80;;;;;;;;;;5060405;28;20945;-59
2022/03/31 03:39:28;;;;;;;4.10;2.50;;;;;;;;;;5045918;28;20261;-59
2022/03/31 03:41:53;;;;;;;3.30;2.43;;;;;;;;;;5043561;28;20203;-59
2022/03/31 03:44:18;;;;;;;3.77;2.43;;;;;;;;;;5042251;28;20207;-59
2022/03/31 03:46:43;;;;;;;3.30;2.27;;;;;;;;;;5043377;28;20207;-59
2022/03/31 03:49:09;;;;;;;4.90;2.57;;;;;;;;;;5061679;28;21312;-59
2022/03/31 03:51:34;;;;;;;3.10;2.27;;;;;;;;;;5059052;28;20705;-59
2022/03/31 03:53:59;;;;;;;3.00;2.20;;;;;;;;;;5054056;28;20492;-59
2022/03/31 03:56:24;;;;;;;3.43;2.07;;;;;;;;;;5054011;28;20667;-59
2022/03/31 03:58:50;;;;;;;3.13;2.23;;;;;;;;;;5051620;28;20218;-59
2022/03/31 04:01:15;;;;;;;2.43;2.00;;;;;;;;;;5061275;28;20635;-59
2022/03/31 04:03:40;;;;;;;3.87;2.27;;;;;;;;;;5062476;28;20214;-59
2022/03/31 04:06:05;;;;;;;4.00;2.20;;;;;;;;;;5061734;28;20771;-60
2022/03/31 04:08:31;;;;;;;3.13;2.40;;;;;;;;;;5062045;28;20214;-59
2022/03/31 04:10:56;;;;;;;3.40;2.40;;;;;;;;;;5047801;28;20217;-59
2022/03/31 04:13:21;;;;;;;3.50;2.43;;;;;;;;;;5041773;28;20276;-59
2022/03/31 04:15:46;;;;;;;9.03;5.17;;;;;;;;;;5022613;28;20227;-59
2022/03/31 04:18:12;;;;;;;9.83;6.87;;;;;;;;;;5034354;28;20392;-59
2022/03/31 04:20:37;;;;;;;4.87;2.90;;;;;;;;;;5035162;28;20214;-59
2022/03/31 04:23:02;;;;;;;5.83;3.33;;;;;;;;;;5041384;28;20219;-59
2022/03/31 04:25:28;;;;;;;4.30;3.00;;;;;;;;;;5044401;28;20252;-59
2022/03/31 04:27:53;;;;;;;5.43;3.90;;;;;;;;;;5061796;28;20217;-59
2022/03/31 04:30:20;;;;;;;7.00;3.90;;;;;;;;;;5061348;28;20241;-59
2022/03/31 04:32:46;;;;;;;7.73;3.60;;;;;;;;;;5062246;28;20754;-71
2022/03/31 04:35:11;;;;;;;5.57;3.50;;;;;;;;;;5061183;28;20223;-75
2022/03/31 04:37:37;;;;;;;5.63;4.07;;;;;;;;;;5054442;28;20210;-61
2022/03/31 04:40:04;;;;;;;4.97;3.50;;;;;;;;;;5033797;28;20240;-61
2022/03/31 04:42:29;;;;;;;5.13;3.50;;;;;;;;;;5043826;28;20701;-66
2022/03/31 04:44:55;;;;;;;5.18;3.50;;;;;;;;;;5040169;28;20459;-70
2022/03/31 04:47:21;;;;;;;6.10;4.60;;;;;;;;;;5041658;28;20219;-63
2022/03/31 04:49:46;;;;;;;4.73;3.33;;;;;;;;;;5042137;28;20226;-62
2022/03/31 04:52:11;;;;;;;4.40;2.77;;;;;;;;;;5041921;28;20218;-63
2022/03/31 04:54:43;;;;;;;6.70;4.23;;;;;;;;;;5042542;28;20199;-63
2022/03/31 04:57:09;;;;;;;3.60;2.87;;;;;;;;;;5060733;28;20321;-62
2022/03/31 04:59:34;;;;;;;4.70;3.50;;;;;;;;;;5045629;28;21064;-62
2022/03/31 05:01:59;;;;;;;4.40;3.30;;;;;;;;;;5053619;28;21112;-63
2022/03/31 05:04:24;;;;;;;4.57;3.10;;;;;;;;;;5052850;28;20207;-61
2022/03/31 05:06:50;;;;;;;4.50;2.97;;;;;;;;;;5056706;28;20214;-61
2022/03/31 05:09:15;;;;;;;4.53;3.23;;;;;;;;;;5059790;28;20218;-64
2022/03/31 05:11:40;;;;;;;5.27;3.00;;;;;;;;;;5041603;28;20214;-64
2022/03/31 05:14:05;;;;;;;4.97;3.57;;;;;;;;;;5049724;28;20301;-61
2022/03/31 05:16:31;;;;;;;4.87;3.77;;;;;;;;;;5045436;28;20219;-62
2022/03/31 05:18:56;;;;;;;4.60;3.67;;;;;;;;;;5041788;28;20288;-64
2022/03/31 05:21:21;;;;;;;4.60;3.47;;;;;;;;;;5040945;28;20368;-64
2022/03/31 05:23:48;;;;;;;5.27;3.70;;;;;;;;;;5033323;28;20831;-64
2022/03/31 05:26:13;;;;;;;3.90;2.90;;;;;;;;;;5052914;28;20218;-64
2022/03/31 05:28:38;;;;;;;4.07;3.30;;;;;;;;;;5054952;28;20226;-63
2022/03/31 05:31:04;;;;;;;9.53;8.53;;;;;;;;;;5059886;28;20241;-63
2022/03/31 05:33:29;;;;;;;7.13;4.53;;;;;;;;;;5061540;28;20644;-63
2022/03/31 05:35:54;;;;;;;5.30;3.67;;;;;;;;;;5061499;28;20241;-63
2022/03/31 05:38:20;;;;;;;5.73;3.20;;;;;;;;;;5052594;28;20226;-63
2022/03/31 05:40:46;;;;;;;4.60;3.40;;;;;;;;;;5042215;28;20211;-63
2022/03/31 05:43:11;;;;;;;4.87;3.07;;;;;;;;;;5041125;28;20215;-63
2022/03/31 05:45:37;;;;;;;5.43;3.03;;;;;;;;;;5035645;28;20230;-62
2022/03/31 05:48:02;;;;;;;5.50;3.93;;;;;;;;;;5032827;28;20503;-63
2022/03/31 05:50:28;;;;;;;5.20;3.50;;;;;;;;;;5033820;28;20557;-62
2022/03/31 05:52:53;;;;;;;5.07;3.40;;;;;;;;;;5038458;28;20211;-63
2022/03/31 05:55:19;;;;;;;5.90;3.67;;;;;;;;;;5041976;28;20241;-59
2022/03/31 05:57:45;;;;;;;5.07;3.60;;;;;;;;;;5051916;28;20219;-60
2022/03/31 06:00:11;;;;;;;5.50;3.50;;;;;;;;;;5071644;28;20219;-59
2022/03/31 06:02:37;;;;;;;5.43;3.90;;;;;;;;;;5074956;28;20209;-60
2022/03/31 06:05:02;;;;;;;5.87;3.97;;;;;;;;;;5074192;28;20218;-60
2022/03/31 06:07:27;;;;;;;13.20;11.07;;;;;;;;;;5074586;28;20202;-60
2022/03/31 06:09:53;;;;;;;5.77;4.13;;;;;;;;;;5074916;28;20207;-60
2022/03/31 06:12:18;;;;;;;4.07;3.10;;;;;;;;;;5065639;28;20672;-60
2022/03/31 06:14:43;;;;;;;4.00;2.77;;;;;;;;;;5070820;28;20571;-59
2022/03/31 06:17:09;;;;;;;5.50;2.80;;;;;;;;;;5069296;28;20202;-59
2022/03/31 06:19:35;;;;;;;3.60;2.53;;;;;;;;;;5064572;28;20203;-59
2022/03/31 06:22:00;;;;;;;7.13;3.70;;;;;;;;;;5063546;28;20214;-60
2022/03/31 06:24:26;;;;;;;7.73;4.13;;;;;;;;;;5058832;28;20285;-60
2022/03/31 06:26:51;;;;;;;8.30;5.50;;;;;;;;;;5054766;28;20293;-60
2022/03/31 06:29:17;;;;;;;7.07;4.10;;;;;;;;;;5053370;28;20302;-60
2022/03/31 06:31:43;;;;;;;16.50;2.70;;;;;;;;;;5054642;28;20255;-60
2022/03/31 06:34:08;;;;;;;17.63;8.13;;;;;;;;;;5053845;28;20235;-60
2022/03/31 06:36:33;;;;;;;12.33;7.97;;;;;;;;;;5053861;28;20270;-60
2022/03/31 06:38:58;;;;;;;20.00;13.07;;;;;;;;;;5054327;28;20242;-61
2022/03/31 06:41:24;;;;;;;7.20;4.47;;;;;;;;;;5053088;28;20242;-60
2022/03/31 06:43:49;;;;;;;13.57;10.47;;;;;;;;;;5054170;28;20218;-60
2022/03/31 06:46:15;;;;;;;27.53;19.90;;;;;;;;;;5053939;28;20218;-60
2022/03/31 06:48:41;;;;;;;30.73;23.77;;;;;;;;;;5070893;28;20259;-60
2022/03/31 06:51:08;;;;;;;2.20;1.90;;;;;;;;;;5073823;28;20215;-60
2022/03/31 06:53:33;;;;;;;3.43;2.70;;;;;;;;;;5073968;28;20241;-60
2022/03/31 06:55:58;;;;;;;10.83;9.73;;;;;;;;;;5072943;28;20254;-59
2022/03/31 06:58:27;;;;;;;13.03;11.73;;;;;;;;;;5055788;28;20304;-60
2022/03/31 07:00:52;;;;;;;19.77;2.70;;;;;;;;;;5053822;28;20246;-60
2022/03/31 07:03:18;;;;;;;2.20;1.80;;;;;;;;;;5053399;28;20231;-60
2022/03/31 07:05:43;;;;;;;2.57;2.20;;;;;;;;;;5066147;28;20590;-59
2022/03/31 07:08:08;;;;;;;5.27;3.10;;;;;;;;;;5083225;28;20206;-59
2022/03/31 07:10:34;;;;;;;2.13;1.93;;;;;;;;;;5052441;28;20562;-60
2022/03/31 07:13:00;;;;;;;3.17;2.13;;;;;;;;;;5056498;28;20211;-60
2022/03/31 07:15:26;;;;;;;5.75;3.90;;;;;;;;;;5061383;28;20223;-59
2022/03/31 07:17:51;;;;;;;3.57;2.50;;;;;;;;;;5067292;28;20202;-60
2022/03/31 07:20:16;;;;;;;2.80;2.22;;;;;;;;;;5058174;28;20349;-59
2022/03/31 07:22:43;;;;;;;5.17;3.17;;;;;;;;;;5053141;28;20207;-59
2022/03/31 07:25:08;;;;;;;21.10;16.77;;;;;;;;;;5034572;28;20678;-59
2022/03/31 07:27:33;;;;;;;14.03;8.17;;;;;;;;;;5059243;28;20218;-59
2022/03/31 07:29:58;;;;;;;15.83;10.50;;;;;;;;;;5062621;28;20242;-59
2022/03/31 07:32:24;;;;;;;5.20;3.70;;;;;;;;;;5061016;28;20272;-59
2022/03/31 07:34:49;;;;;;;3.33;2.50;;;;;;;;;;5063905;28;20699;-59
2022/03/31 07:37:15;;;;;;;4.23;3.23;;;;;;;;;;5061121;28;20199;-59
2022/03/31 07:39:45;;;;;;;6.80;6.20;;;;;;;;;;5054580;28;20261;-59
2022/03/31 07:42:10;;;;;;;4.60;3.80;;;;;;;;;;5052885;28;20678;-58
2022/03/31 07:44:36;;;;;;;7.23;6.50;;;;;;;;;;5052620;28;20218;-59
2022/03/31 07:47:01;;;;;;;6.20;5.50;;;;;;;;;;5055923;28;20742;-60
2022/03/31 07:49:26;;;;;;;8.50;7.67;;;;;;;;;;5072815;28;20214;-60
2022/03/31 07:51:52;;;;;;;13.80;7.53;;;;;;;;;;5061071;28;20699;-60
2022/03/31 07:54:17;;;;;;;8.23;5.83;;;;;;;;;;5065192;28;20213;-60
2022/03/31 07:56:42;;;;;;;5.13;3.30;;;;;;;;;;5072348;28;20245;-60
2022/03/31 07:59:08;;;;;;;7.20;5.87;;;;;;;;;;5062239;28;20299;-60
2022/03/31 08:01:33;;;;;;;7.73;6.40;;;;;;;;;;5060054;28;20215;-60
2022/03/31 08:03:59;;;;;;;5.37;3.97;;;;;;;;;;5061291;28;20238;-61
2022/03/31 08:06:24;;;;;;;4.60;3.90;;;;;;;;;;5059694;28;20909;-60
2022/03/31 08:08:49;;;;;;;4.20;3.20;;;;;;;;;;5057660;28;20207;-61
2022/03/31 08:11:15;;;;;;;5.00;4.20;;;;;;;;;;5055921;28;20635;-61
2022/03/31 08:13:40;;;;;;;6.57;4.00;;;;;;;;;;5051911;28;20223;-61
2022/03/31 08:16:08;;;;;;;4.20;3.10;;;;;;;;;;5061157;28;20231;-61
2022/03/31 08:18:34;;;;;;;6.07;4.70;;;;;;;;;;5067130;28;20213;-61
2022/03/31 08:21:01;;;;;;;5.50;3.30;;;;;;;;;;5064438;28;20230;-61
2022/03/31 08:23:26;;;;;;;4.30;3.10;;;;;;;;;;5052127;28;20207;-61
2022/03/31 08:25:52;;;;;;;5.23;2.80;;;;;;;;;;5051155;28;20582;-61
2022/03/31 08:28:17;;;;;;;19.17;9.70;;;;;;;;;;5069333;28;20268;-61
2022/03/31 08:30:43;;;;;;;5.73;3.50;;;;;;;;;;5070129;28;20556;-61
2022/03/31 08:33:09;;;;;;;4.40;3.63;;;;;;;;;;5053319;28;20214;-61
2022/03/31 08:35:34;;;;;;;4.63;3.50;;;;;;;;;;5071350;28;20220;-61
2022/03/31 08:37:59;;;;;;;4.50;3.33;;;;;;;;;;5072683;28;20631;-62
2022/03/31 08:40:25;;;;;;;6.73;5.40;;;;;;;;;;5066215;28;20214;-61
2022/03/31 08:42:50;;;;;;;8.50;5.83;;;;;;;;;;5066294;28;20289;-61
2022/03/31 08:45:17;;;;;;;11.47;8.60;;;;;;;;;;5039635;28;20219;-61
2022/03/31 08:47:43;;;;;;;5.20;3.90;;;;;;;;;;5059546;28;20234;-61
2022/03/31 08:50:09;;;;;;;4.83;3.40;;;;;;;;;;5065324;28;20617;-61
2022/03/31 08:52:34;;;;;;;5.32;3.90;;;;;;;;;;5071157;28;20418;-62
2022/03/31 08:54:59;;;;;;;31.77;19.00;;;;;;;;;;5071393;28;20252;-61
2022/03/31 08:57:25;;;;;;;6.00;4.20;;;;;;;;;;5071453;28;20226;-61
2022/03/31 08:59:51;;;;;;;5.80;3.70;;;;;;;;;;5056128;28;20214;-61
2022/03/31 09:02:25;;;;;;;8.87;6.50;;;;;;;;;;5050841;28;20218;-62
2022/03/31 09:05:00;;;;;;;44.03;32.27;;;;;;;;;;5052100;28;20245;-62
2022/03/31 09:07:26;;;;;;;8.17;6.40;;;;;;;;;;5051596;28;20207;-61
2022/03/31 09:09:51;;;;;;;8.03;7.03;;;;;;;;;;5067307;28;20222;-61
2022/03/31 09:12:17;;;;;;;5.97;4.60;;;;;;;;;;5057589;28;20222;-61
2022/03/31 09:14:43;;;;;;;10.40;9.30;;;;;;;;;;5061927;28;20597;-61
2022/03/31 09:17:10;;;;;;;5.00;4.03;;;;;;;;;;5070415;28;20304;-61
2022/03/31 09:19:35;;;;;;;7.90;5.60;;;;;;;;;;5071465;28;20210;-61
2022/03/31 09:22:01;;;;;;;5.07;4.47;;;;;;;;;;5040380;28;20221;-61
2022/03/31 09:24:27;;;;;;;5.23;4.20;;;;;;;;;;5070936;28;20256;-61
2022/03/31 09:26:53;;;;;;;4.70;3.60;;;;;;;;;;5066642;28;20289;-61
2022/03/31 09:29:20;;;;;;;4.40;3.60;;;;;;;;;;5059197;28;20360;-61
2022/03/31 09:31:46;;;;;;;4.97;3.60;;;;;;;;;;5064107;28;20673;-61
2022/03/31 09:34:13;;;;;;;8.93;5.30;;;;;;;;;;5050470;28;20296;-61
2022/03/31 09:36:39;;;;;;;10.57;5.80;;;;;;;;;;5053999;28;20227;-62
2022/03/31 09:39:07;;;;;;;5.43;3.90;;;;;;;;;;5049357;28;20215;-62
2022/03/31 09:41:34;;;;;;;4.20;3.43;;;;;;;;;;5062082;28;20313;-61
2022/03/31 09:44:00;;;;;;;4.63;3.70;;;;;;;;;;5046133;28;20218;-61
2022/03/31 09:46:26;;;;;;;4.63;3.60;;;;;;;;;;5050415;28;20226;-61
2022/03/31 09:48:52;;;;;;;6.13;3.70;;;;;;;;;;5050477;28;20214;-61
2022/03/31 09:51:17;;;;;;;4.30;3.07;;;;;;;;;;5033133;28;20300;-61
2022/03/31 09:53:43;;;;;;;5.93;3.27;;;;;;;;;;5052437;28;20693;-61
2022/03/31 09:56:08;;;;;;;3.77;3.00;;;;;;;;;;5048009;28;20292;-61
2022/03/31 09:58:35;;;;;;;4.63;3.07;;;;;;;;;;5049981;28;20226;-61
2022/03/31 10:01:02;;;;;;;3.97;2.70;;;;;;;;;;5030378;28;20219;-61
2022/03/31 10:03:27;;;;;;;3.63;2.85;;;;;;;;;;5043959;28;20219;-62
2022/03/31 10:05:53;;;;;;;3.67;2.57;;;;;;;;;;5025482;28;20219;-61
2022/03/31 10:08:18;;;;;;;4.00;2.87;;;;;;;;;;5022516;28;20234;-62
2022/03/31 10:10:46;;;;;;;27.20;15.90;;;;;;;;;;5022708;28;20290;-61
2022/03/31 10:13:15;;;;;;;8.17;5.93;;;;;;;;;;5045595;28;20203;-61
2022/03/31 10:15:40;;;;;;;4.57;3.80;;;;;;;;;;5029053;28;20238;-62
2022/03/31 10:18:06;;;;;;;4.80;3.93;;;;;;;;;;5028242;28;20218;-61
2022/03/31 10:20:31;;;;;;;30.53;21.73;;;;;;;;;;5028683;28;20662;-62
2022/03/31 10:25:41;;;;;;;17.87;13.40;;;;;;;;;;5030676;28;20290;-62
2022/03/31 10:28:08;;;;;;;5.00;3.90;;;;;;;;;;5043787;28;20219;-61
2022/03/31 10:30:33;;;;;;;6.07;4.50;;;;;;;;;;5040832;28;20214;-61
2022/03/31 10:33:01;;;;;;;4.70;3.73;;;;;;;;;;5039884;28;20591;-61
2022/03/31 10:35:27;;;;;;;3.60;2.60;;;;;;;;;;5043665;28;20328;-61
2022/03/31 10:37:53;;;;;;;3.83;2.87;;;;;;;;;;5048028;28;20218;-62
2022/03/31 10:40:28;;;;;;;9.73;8.73;;;;;;;;;;5028346;28;20219;-61
2022/03/31 10:42:55;;;;;;;5.70;4.57;;;;;;;;;;5047200;28;20214;-61
2022/03/31 10:45:20;;;;;;;9.63;8.40;;;;;;;;;;5048168;28;20261;-61
2022/03/31 10:47:45;;;;;;;13.77;12.37;;;;;;;;;;5028731;28;20674;-61
2022/03/31 10:50:22;;;;;;;5.97;5.10;;;;;;;;;;5045580;28;20211;-61
2022/03/31 10:52:56;;;;;;;9.80;8.57;;;;;;;;;;5041458;28;20206;-61
2022/03/31 10:55:21;;;;;;;7.90;6.00;;;;;;;;;;5039456;28;20238;-61
2022/03/31 10:57:47;;;;;;;10.93;9.87;;;;;;;;;;5022723;28;20230;-61
2022/03/31 11:00:14;;;;;;;5.33;4.60;;;;;;;;;;5047280;28;20203;-61
2022/03/31 11:02:41;;;;;;;4.20;3.27;;;;;;;;;;5047097;28;20230;-61
2022/03/31 11:05:07;;;;;;;8.03;4.40;;;;;;;;;;5047246;28;20214;-61
2022/03/31 11:07:32;;;;;;;4.93;3.30;;;;;;;;;;5028066;28;20277;-60
2022/03/31 11:09:59;;;;;;;7.53;5.47;;;;;;;;;;5046933;28;20215;-61
2022/03/31 11:12:27;;;;;;;2.50;1.97;;;;;;;;;;5046467;28;20221;-61
2022/03/31 11:14:54;;;;;;;6.57;5.83;;;;;;;;;;5040880;28;20218;-60
2022/03/31 11:17:20;;;;;;;3.70;1.92;;;;;;;;;;5038681;28;20219;-60
2022/03/31 11:19:45;;;;;;;2.50;1.90;;;;;;;;;;5039893;28;20554;-61
2022/03/31 11:22:17;;;;;;;2.10;1.70;;;;;;;;;;5046706;28;20296;-60
2022/03/31 11:24:42;;;;;;;12.77;2.37;;;;;;;;;;5047014;28;20203;-60
2022/03/31 11:27:08;;;;;;;2.63;2.03;;;;;;;;;;5046050;28;20214;-60
2022/03/31 11:29:33;;;;;;;2.63;1.90;;;;;;;;;;5047463;28;20238;-60
2022/03/31 11:31:58;;;;;;;2.57;1.97;;;;;;;;;;5045112;28;20219;-60
2022/03/31 11:34:24;;;;;;;3.00;2.07;;;;;;;;;;5027692;28;20242;-60
2022/03/31 11:36:51;;;;;;;3.07;2.10;;;;;;;;;;5040261;28;20627;-60
2022/03/31 11:39:17;;;;;;;2.63;1.80;;;;;;;;;;5037158;28;20242;-60
2022/03/31 11:41:43;;;;;;;2.10;1.90;;;;;;;;;;5048420;28;20217;-60
2022/03/31 11:44:08;;;;;;;2.50;2.10;;;;;;;;;;5047394;28;20222;-60
2022/03/31 11:46:39;;;;;;;8.57;4.83;;;;;;;;;;5048803;28;20297;-59
2022/03/31 11:49:12;;;;;;;13.53;7.67;;;;;;;;;;5046664;28;20253;-59
2022/03/31 11:51:37;;;;;;;47.73;19.40;;;;;;;;;;5046887;28;20690;-59
2022/03/31 11:54:06;;;;;;;10.27;4.50;;;;;;;;;;5029374;28;20285;-59
2022/03/31 11:56:32;;;;;;;26.40;22.40;;;;;;;;;;5048857;28;20223;-59
2022/03/31 11:58:57;;;;;;;5.37;4.00;;;;;;;;;;5042699;28;20222;-59
2022/03/31 12:01:32;;;;;;;8.70;7.50;;;;;;;;;;5039091;28;20226;-59
2022/03/31 12:03:58;;;;;;;2.40;1.73;;;;;;;;;;5038880;28;20210;-59
2022/03/31 12:06:23;;;;;;;2.43;2.10;;;;;;;;;;5043239;28;20276;-58
2022/03/31 12:08:48;;;;;;;2.20;1.80;;;;;;;;;;5047103;28;20219;-59
2022/03/31 12:11:14;;;;;;;2.60;2.30;;;;;;;;;;5046227;28;20214;-58
2022/03/31 12:13:53;;;;;;;7.00;5.20;;;;;;;;;;5028590;28;20207;-58
2022/03/31 12:16:19;;;;;;;2.90;2.40;;;;;;;;;;5054995;28;20280;-68
2022/03/31 12:18:44;;;;;;;4.00;2.77;;;;;;;;;;5052259;28;20202;-58
2022/03/31 12:21:09;;;;;;;12.23;7.20;;;;;;;;;;5055418;28;20545;-58
2022/03/31 12:23:41;;;;;;;31.42;17.63;;;;;;;;;;5044392;28;20218;-58
2022/03/31 12:26:13;;;;;;;19.90;12.50;;;;;;;;;;5049761;28;20309;-58
2022/03/31 12:28:42;;;;;;;5.87;3.60;;;;;;;;;;5046210;28;20297;-65
2022/03/31 12:31:08;;;;;;;3.70;2.53;;;;;;;;;;5038602;28;20557;-65
2022/03/31 12:33:35;;;;;;;2.67;2.10;;;;;;;;;;5028606;28;20207;-65
2022/03/31 12:36:01;;;;;;;9.23;8.33;;;;;;;;;;5046450;28;20223;-62
2022/03/31 12:38:36;;;;;;;4.63;3.83;;;;;;;;;;5031585;28;20203;-62
2022/03/31 12:41:02;;;;;;;5.17;4.17;;;;;;;;;;5048105;28;20207;-62
2022/03/31 12:43:27;;;;;;;7.30;5.80;;;;;;;;;;5043814;28;20213;-63
2022/03/31 12:45:52;;;;;;;13.30;11.40;;;;;;;;;;5038303;28;20667;-61
2022/03/31 12:48:18;;;;;;;3.20;2.70;;;;;;;;;;5037596;28;20473;-63
2022/03/31 12:50:44;;;;;;;9.13;8.20;;;;;;;;;;5039783;28;20608;-63
2022/03/31 12:53:09;;;;;;;2.50;2.10;;;;;;;;;;5045782;28;20226;-63
2022/03/31 12:55:35;;;;;;;3.20;2.53;;;;;;;;;;5045581;28;20223;-63
2022/03/31 12:58:00;;;;;;;3.27;2.20;;;;;;;;;;5054177;28;20235;-61
2022/03/31 13:00:26;;;;;;;3.67;2.03;;;;;;;;;;5045984;28;20207;-62
2022/03/31 13:02:52;;;;;;;3.60;2.80;;;;;;;;;;5054291;28;20242;-62
2022/03/31 13:05:19;;;;;;;5.13;3.90;;;;;;;;;;5045420;28;20284;-61
2022/03/31 13:07:44;;;;;;;2.63;2.10;;;;;;;;;;5042721;28;20276;-62
2022/03/31 13:10:09;;;;;;;3.20;2.70;;;;;;;;;;5042394;28;20877;-61
2022/03/31 13:12:35;;;;;;;3.33;2.60;;;;;;;;;;5042117;28;20263;-62
2022/03/31 13:15:00;;;;;;;3.27;2.67;;;;;;;;;;5049298;28;20211;-61
2022/03/31 13:17:26;;;;;;;2.97;2.20;;;;;;;;;;5049093;28;20731;-61
2022/03/31 13:19:52;;;;;;;2.77;2.10;;;;;;;;;;5050010;28;20211;-61
2022/03/31 13:22:20;;;;;;;2.20;2.00;;;;;;;;;;5048895;28;20219;-61
2022/03/31 13:24:48;;;;;;;2.30;1.87;;;;;;;;;;5052623;28;20207;-63
2022/03/31 13:27:13;;;;;;;2.80;1.80;;;;;;;;;;5049196;28;20218;-63
2022/03/31 13:29:38;;;;;;;3.17;2.10;;;;;;;;;;5044804;28;20211;-63
2022/03/31 13:32:05;;;;;;;2.23;1.73;;;;;;;;;;5041416;28;20233;-63
2022/03/31 13:34:31;;;;;;;1.57;1.30;;;;;;;;;;5041320;28;20210;-63
2022/03/31 13:36:59;;;;;;;1.97;1.40;;;;;;;;;;5046351;28;20246;-63
2022/03/31 13:39:25;;;;;;;2.07;1.60;;;;;;;;;;5049258;28;20681;-63
2022/03/31 13:41:50;;;;;;;1.97;1.60;;;;;;;;;;5058258;28;20211;-62
2022/03/31 13:44:15;;;;;;;2.50;1.53;;;;;;;;;;5048955;28;20211;-63
2022/03/31 13:46:41;;;;;;;1.70;1.30;;;;;;;;;;5050071;28;20215;-62
2022/03/31 13:49:09;;;;;;;1.70;1.23;;;;;;;;;;5048240;28;20227;-62
2022/03/31 13:51:34;;;;;;;2.00;1.50;;;;;;;;;;5055743;28;20700;-63
2022/03/31 13:54:05;;;;;;;2.17;1.50;;;;;;;;;;5042049;28;20326;-63
2022/03/31 13:56:31;;;;;;;1.73;1.30;;;;;;;;;;5040563;28;20227;-62
2022/03/31 14:01:40;;;;;;;2.20;1.50;;;;;;;;;;5067603;28;20328;-62
2022/03/31 14:04:05;;;;;;;1.87;1.40;;;;;;;;;;5048879;28;20353;-61
2022/03/31 14:06:31;;;;;;;1.20;1.10;;;;;;;;;;5048706;28;20219;-62
2022/03/31 14:08:59;;;;;;;1.93;1.20;;;;;;;;;;5049278;28;20670;-62
2022/03/31 14:11:28;;;;;;;1.67;1.00;;;;;;;;;;5048239;28;20301;-61
2022/03/31 14:13:53;;;;;;;2.10;1.40;;;;;;;;;;5050214;28;20733;-62
2022/03/31 14:16:20;;;;;;;1.67;1.30;;;;;;;;;;5040705;28;20241;-62
2022/03/31 14:18:45;;;;;;;1.43;1.00;;;;;;;;;;5039999;28;20223;-62
2022/03/31 14:21:11;;;;;;;1.50;1.00;;;;;;;;;;5048613;28;20238;-63
2022/03/31 14:23:37;;;;;;;1.97;0.90;;;;;;;;;;5060115;28;20211;-62
2022/03/31 14:26:02;;;;;;;1.13;0.93;;;;;;;;;;5047724;28;20215;-61
2022/03/31 14:28:28;;;;;;;1.63;1.00;;;;;;;;;;5048763;28;20238;-61
2022/03/31 14:30:54;;;;;;;1.90;0.90;;;;;;;;;;5031263;28;20302;-61
2022/03/31 14:33:19;;;;;;;1.97;1.10;;;;;;;;;;5058926;28;20664;-61
2022/03/31 14:35:45;;;;;;;1.77;1.10;;;;;;;;;;5048541;28;20226;-61
2022/03/31 14:38:10;;;;;;;1.80;1.20;;;;;;;;;;5052889;28;20215;-61
2022/03/31 14:40:35;;;;;;;1.20;0.93;;;;;;;;;;5039608;28;20215;-61
2022/03/31 14:43:01;;;;;;;1.70;1.00;;;;;;;;;;5040707;28;20279;-61